sensor_id;sensor_type;location;lat;lon;timestamp;P1;durP1;ratioP1;P2;durP2;ratioP2
34567;SDS011;20806;50.746;7.116;2022-11-20T00:00:57;2.60;;;2.40;;
34567;SDS011;20806;50.746;7.116;2022-11-20T00:03:29;2.28;;;2.08;;
34567;SDS011;20806;50.746;7.116;2022-11-20T00:05:59;2.55;;;2.35;;
34567;SDS011;20806;50.746;7.116;2022-11-20T00:08:25;2.60;;;2.40;;
34567;SDS011;20806;50.746;7.116;2022-11-20T00:10:50;2.42;;;2.25;;
34567;SDS011;20806;50.746;7.116;2022-11-20T00:13:16;2.63;;;2.42;;
34567;SDS011;20806;50.746;7.116;2022-11-20T00:15:42;2.50;;;2.30;;
34567;SDS011;20806;50.746;7.116;2022-11-20T00:18:08;2.42;;;2.22;;
34567;SDS011;20806;50.746;7.116;2022-11-20T00:20:34;2.80;;;2.60;;
34567;SDS011;20806;50.746;7.116;2022-11-20T00:23:00;2.60;;;2.40;;
34567;SDS011;20806;50.746;7.116;2022-11-20T00:25:26;3.00;;;2.80;;
34567;SDS011;20806;50.746;7.116;2022-11-20T00:27:52;2.83;;;2.63;;
34567;SDS011;20806;50.746;7.116;2022-11-20T00:30:18;2.70;;;2.50;;
34567;SDS011;20806;50.746;7.116;2022-11-20T00:32:44;2.70;;;2.50;;
34567;SDS011;20806;50.746;7.116;2022-11-20T00:35:10;3.47;;;3.08;;
34567;SDS011;20806;50.746;7.116;2022-11-20T00:37:36;3.00;;;2.80;;
34567;SDS011;20806;50.746;7.116;2022-11-20T00:40:03;3.00;;;2.70;;
34567;SDS011;20806;50.746;7.116;2022-11-20T00:42:29;2.80;;;2.60;;
34567;SDS011;20806;50.746;7.116;2022-11-20T00:44:57;2.90;;;2.70;;
34567;SDS011;20806;50.746;7.116;2022-11-20T00:47:23;2.92;;;2.72;;
34567;SDS011;20806;50.746;7.116;2022-11-20T00:49:49;3.00;;;2.80;;
34567;SDS011;20806;50.746;7.116;2022-11-20T00:52:15;3.20;;;2.90;;
34567;SDS011;20806;50.746;7.116;2022-11-20T00:54:41;3.20;;;3.00;;
34567;SDS011;20806;50.746;7.116;2022-11-20T00:57:07;3.42;;;3.13;;
34567;SDS011;20806;50.746;7.116;2022-11-20T00:59:33;3.40;;;3.10;;
34567;SDS011;20806;50.746;7.116;2022-11-20T01:01:59;3.30;;;3.00;;
34567;SDS011;20806;50.746;7.116;2022-11-20T01:04:25;3.17;;;2.97;;
34567;SDS011;20806;50.746;7.116;2022-11-20T01:06:51;3.60;;;3.30;;
34567;SDS011;20806;50.746;7.116;2022-11-20T01:09:17;3.50;;;3.20;;
34567;SDS011;20806;50.746;7.116;2022-11-20T01:11:43;3.70;;;3.35;;
34567;SDS011;20806;50.746;7.116;2022-11-20T01:14:11;3.80;;;3.50;;
34567;SDS011;20806;50.746;7.116;2022-11-20T01:16:38;3.60;;;3.30;;
34567;SDS011;20806;50.746;7.116;2022-11-20T01:19:05;3.25;;;2.95;;
34567;SDS011;20806;50.746;7.116;2022-11-20T01:21:33;3.17;;;2.93;;
34567;SDS011;20806;50.746;7.116;2022-11-20T01:24:00;3.55;;;3.25;;
34567;SDS011;20806;50.746;7.116;2022-11-20T01:26:27;3.25;;;2.95;;
34567;SDS011;20806;50.746;7.116;2022-11-20T01:28:53;3.20;;;2.90;;
34567;SDS011;20806;50.746;7.116;2022-11-20T01:31:24;3.23;;;2.93;;
34567;SDS011;20806;50.746;7.116;2022-11-20T01:33:52;3.40;;;3.10;;
34567;SDS011;20806;50.746;7.116;2022-11-20T01:36:19;2.88;;;2.67;;
34567;SDS011;20806;50.746;7.116;2022-11-20T01:38:45;3.40;;;3.10;;
34567;SDS011;20806;50.746;7.116;2022-11-20T01:41:12;3.45;;;3.15;;
34567;SDS011;20806;50.746;7.116;2022-11-20T01:43:58;3.00;;;2.80;;
34567;SDS011;20806;50.746;7.116;2022-11-20T01:46:24;2.90;;;2.70;;
34567;SDS011;20806;50.746;7.116;2022-11-20T01:48:53;3.20;;;2.90;;
34567;SDS011;20806;50.746;7.116;2022-11-20T01:51:28;2.90;;;2.70;;
34567;SDS011;20806;50.746;7.116;2022-11-20T01:53:55;2.85;;;2.65;;
34567;SDS011;20806;50.746;7.116;2022-11-20T01:56:23;3.03;;;2.83;;
34567;SDS011;20806;50.746;7.116;2022-11-20T01:58:51;2.90;;;2.60;;
34567;SDS011;20806;50.746;7.116;2022-11-20T02:01:17;2.75;;;2.55;;
34567;SDS011;20806;50.746;7.116;2022-11-20T02:03:44;2.70;;;2.50;;
34567;SDS011;20806;50.746;7.116;2022-11-20T02:06:12;2.90;;;2.70;;
34567;SDS011;20806;50.746;7.116;2022-11-20T02:08:40;2.50;;;2.30;;
34567;SDS011;20806;50.746;7.116;2022-11-20T02:11:06;2.70;;;2.50;;
34567;SDS011;20806;50.746;7.116;2022-11-20T02:13:32;2.55;;;2.35;;
34567;SDS011;20806;50.746;7.116;2022-11-20T02:18:46;2.38;;;2.28;;
34567;SDS011;20806;50.746;7.116;2022-11-20T02:24:00;2.47;;;2.38;;
34567;SDS011;20806;50.746;7.116;2022-11-20T02:26:26;2.97;;;2.77;;
34567;SDS011;20806;50.746;7.116;2022-11-20T02:28:53;3.30;;;3.00;;
34567;SDS011;20806;50.746;7.116;2022-11-20T02:31:20;2.93;;;2.73;;
34567;SDS011;20806;50.746;7.116;2022-11-20T02:33:45;3.10;;;2.90;;
34567;SDS011;20806;50.746;7.116;2022-11-20T02:36:13;3.03;;;2.75;;
34567;SDS011;20806;50.746;7.116;2022-11-20T02:38:40;2.78;;;2.58;;
34567;SDS011;20806;50.746;7.116;2022-11-20T02:41:07;2.80;;;2.60;;
34567;SDS011;20806;50.746;7.116;2022-11-20T02:43:33;2.70;;;2.50;;
34567;SDS011;20806;50.746;7.116;2022-11-20T02:45:58;2.70;;;2.50;;
34567;SDS011;20806;50.746;7.116;2022-11-20T02:48:24;2.90;;;2.70;;
34567;SDS011;20806;50.746;7.116;2022-11-20T02:50:50;2.97;;;2.78;;
34567;SDS011;20806;50.746;7.116;2022-11-20T02:53:16;2.40;;;2.20;;
34567;SDS011;20806;50.746;7.116;2022-11-20T02:55:42;2.90;;;2.70;;
34567;SDS011;20806;50.746;7.116;2022-11-20T02:58:08;2.88;;;2.67;;
34567;SDS011;20806;50.746;7.116;2022-11-20T03:00:34;2.90;;;2.70;;
34567;SDS011;20806;50.746;7.116;2022-11-20T03:03:00;2.93;;;2.73;;
34567;SDS011;20806;50.746;7.116;2022-11-20T03:05:26;3.00;;;2.80;;
34567;SDS011;20806;50.746;7.116;2022-11-20T03:07:52;2.90;;;2.70;;
34567;SDS011;20806;50.746;7.116;2022-11-20T03:10:18;2.83;;;2.63;;
34567;SDS011;20806;50.746;7.116;2022-11-20T03:12:44;3.08;;;2.83;;
34567;SDS011;20806;50.746;7.116;2022-11-20T03:15:10;2.85;;;2.65;;
34567;SDS011;20806;50.746;7.116;2022-11-20T03:17:36;3.10;;;2.90;;
34567;SDS011;20806;50.746;7.116;2022-11-20T03:20:03;3.05;;;2.85;;
34567;SDS011;20806;50.746;7.116;2022-11-20T03:22:29;2.83;;;2.63;;
34567;SDS011;20806;50.746;7.116;2022-11-20T03:24:55;3.42;;;3.13;;
34567;SDS011;20806;50.746;7.116;2022-11-20T03:27:21;3.27;;;3.00;;
34567;SDS011;20806;50.746;7.116;2022-11-20T03:29:47;2.90;;;2.70;;
34567;SDS011;20806;50.746;7.116;2022-11-20T03:32:13;2.95;;;2.70;;
34567;SDS011;20806;50.746;7.116;2022-11-20T03:34:39;3.33;;;3.03;;
34567;SDS011;20806;50.746;7.116;2022-11-20T03:37:05;2.80;;;2.60;;
34567;SDS011;20806;50.746;7.116;2022-11-20T03:39:31;3.10;;;2.90;;
34567;SDS011;20806;50.746;7.116;2022-11-20T03:41:57;3.53;;;3.22;;
34567;SDS011;20806;50.746;7.116;2022-11-20T03:44:23;4.40;;;3.72;;
34567;SDS011;20806;50.746;7.116;2022-11-20T03:46:49;4.72;;;4.22;;
34567;SDS011;20806;50.746;7.116;2022-11-20T03:49:15;5.20;;;4.50;;
34567;SDS011;20806;50.746;7.116;2022-11-20T03:51:41;5.15;;;4.50;;
34567;SDS011;20806;50.746;7.116;2022-11-20T03:54:07;4.63;;;4.13;;
34567;SDS011;20806;50.746;7.116;2022-11-20T03:56:36;4.73;;;4.20;;
34567;SDS011;20806;50.746;7.116;2022-11-20T03:59:02;4.82;;;4.07;;
34567;SDS011;20806;50.746;7.116;2022-11-20T04:01:32;4.70;;;3.92;;
34567;SDS011;20806;50.746;7.116;2022-11-20T04:03:58;4.30;;;3.88;;
34567;SDS011;20806;50.746;7.116;2022-11-20T04:06:25;4.25;;;3.85;;
34567;SDS011;20806;50.746;7.116;2022-11-20T04:08:56;4.38;;;3.97;;
34567;SDS011;20806;50.746;7.116;2022-11-20T04:11:23;4.40;;;3.85;;
34567;SDS011;20806;50.746;7.116;2022-11-20T04:13:50;5.25;;;4.50;;
34567;SDS011;20806;50.746;7.116;2022-11-20T04:16:17;5.50;;;4.80;;
34567;SDS011;20806;50.746;7.116;2022-11-20T04:18:43;4.67;;;4.20;;
34567;SDS011;20806;50.746;7.116;2022-11-20T04:21:09;4.20;;;3.80;;
34567;SDS011;20806;50.746;7.116;2022-11-20T04:23:35;4.28;;;3.80;;
34567;SDS011;20806;50.746;7.116;2022-11-20T04:26:05;3.90;;;3.50;;
34567;SDS011;20806;50.746;7.116;2022-11-20T04:28:32;4.03;;;3.63;;
34567;SDS011;20806;50.746;7.116;2022-11-20T04:31:08;4.22;;;3.83;;
34567;SDS011;20806;50.746;7.116;2022-11-20T04:33:34;4.03;;;3.63;;
34567;SDS011;20806;50.746;7.116;2022-11-20T04:36:00;4.03;;;3.63;;
34567;SDS011;20806;50.746;7.116;2022-11-20T04:38:27;4.05;;;3.40;;
34567;SDS011;20806;50.746;7.116;2022-11-20T04:40:55;3.80;;;3.42;;
34567;SDS011;20806;50.746;7.116;2022-11-20T04:43:22;3.87;;;3.43;;
34567;SDS011;20806;50.746;7.116;2022-11-20T04:45:51;4.03;;;3.60;;
34567;SDS011;20806;50.746;7.116;2022-11-20T04:48:17;4.53;;;4.00;;
34567;SDS011;20806;50.746;7.116;2022-11-20T04:50:43;5.85;;;4.28;;
34567;SDS011;20806;50.746;7.116;2022-11-20T04:53:09;4.22;;;3.83;;
34567;SDS011;20806;50.746;7.116;2022-11-20T04:55:35;4.70;;;3.90;;
34567;SDS011;20806;50.746;7.116;2022-11-20T04:58:01;4.53;;;4.05;;
34567;SDS011;20806;50.746;7.116;2022-11-20T05:00:27;4.57;;;3.90;;
34567;SDS011;20806;50.746;7.116;2022-11-20T05:02:53;4.38;;;3.65;;
34567;SDS011;20806;50.746;7.116;2022-11-20T05:05:19;3.80;;;3.42;;
34567;SDS011;20806;50.746;7.116;2022-11-20T05:07:45;4.07;;;3.50;;
34567;SDS011;20806;50.746;7.116;2022-11-20T05:10:11;3.45;;;3.10;;
34567;SDS011;20806;50.746;7.116;2022-11-20T05:12:37;3.88;;;3.47;;
34567;SDS011;20806;50.746;7.116;2022-11-20T05:15:03;3.95;;;3.42;;
34567;SDS011;20806;50.746;7.116;2022-11-20T05:17:29;3.60;;;3.30;;
34567;SDS011;20806;50.746;7.116;2022-11-20T05:19:55;4.00;;;3.50;;
34567;SDS011;20806;50.746;7.116;2022-11-20T05:22:21;3.30;;;3.00;;
34567;SDS011;20806;50.746;7.116;2022-11-20T05:24:47;3.65;;;3.35;;
34567;SDS011;20806;50.746;7.116;2022-11-20T05:27:13;3.95;;;3.35;;
34567;SDS011;20806;50.746;7.116;2022-11-20T05:29:39;4.05;;;3.60;;
34567;SDS011;20806;50.746;7.116;2022-11-20T05:32:05;3.40;;;3.10;;
34567;SDS011;20806;50.746;7.116;2022-11-20T05:34:33;3.20;;;2.90;;
34567;SDS011;20806;50.746;7.116;2022-11-20T05:36:59;3.80;;;3.40;;
34567;SDS011;20806;50.746;7.116;2022-11-20T05:39:25;3.58;;;3.17;;
34567;SDS011;20806;50.746;7.116;2022-11-20T05:41:51;3.20;;;2.90;;
34567;SDS011;20806;50.746;7.116;2022-11-20T05:44:37;3.70;;;3.25;;
34567;SDS011;20806;50.746;7.116;2022-11-20T05:47:03;3.67;;;3.28;;
34567;SDS011;20806;50.746;7.116;2022-11-20T05:49:29;3.97;;;3.40;;
34567;SDS011;20806;50.746;7.116;2022-11-20T05:51:55;3.70;;;3.40;;
34567;SDS011;20806;50.746;7.116;2022-11-20T05:54:21;4.05;;;3.65;;
34567;SDS011;20806;50.746;7.116;2022-11-20T05:56:47;3.80;;;3.40;;
34567;SDS011;20806;50.746;7.116;2022-11-20T05:59:13;3.67;;;3.38;;
34567;SDS011;20806;50.746;7.116;2022-11-20T06:01:39;4.10;;;3.70;;
34567;SDS011;20806;50.746;7.116;2022-11-20T06:04:05;3.60;;;3.30;;
34567;SDS011;20806;50.746;7.116;2022-11-20T06:06:31;3.88;;;3.47;;
34567;SDS011;20806;50.746;7.116;2022-11-20T06:08:57;3.85;;;3.50;;
34567;SDS011;20806;50.746;7.116;2022-11-20T06:11:23;3.72;;;3.40;;
34567;SDS011;20806;50.746;7.116;2022-11-20T06:13:49;3.53;;;3.22;;
34567;SDS011;20806;50.746;7.116;2022-11-20T06:16:16;3.60;;;3.30;;
34567;SDS011;20806;50.746;7.116;2022-11-20T06:18:43;3.28;;;2.97;;
34567;SDS011;20806;50.746;7.116;2022-11-20T06:21:10;3.28;;;2.85;;
34567;SDS011;20806;50.746;7.116;2022-11-20T06:23:37;3.40;;;3.10;;
34567;SDS011;20806;50.746;7.116;2022-11-20T06:26:07;3.47;;;3.17;;
34567;SDS011;20806;50.746;7.116;2022-11-20T06:28:33;3.08;;;2.83;;
34567;SDS011;20806;50.746;7.116;2022-11-20T06:30:59;3.25;;;2.95;;
34567;SDS011;20806;50.746;7.116;2022-11-20T06:33:25;3.10;;;2.70;;
34567;SDS011;20806;50.746;7.116;2022-11-20T06:35:51;2.90;;;2.70;;
34567;SDS011;20806;50.746;7.116;2022-11-20T06:38:17;2.72;;;2.53;;
34567;SDS011;20806;50.746;7.116;2022-11-20T06:40:43;2.75;;;2.55;;
34567;SDS011;20806;50.746;7.116;2022-11-20T06:43:09;2.67;;;2.47;;
34567;SDS011;20806;50.746;7.116;2022-11-20T06:45:36;2.60;;;2.40;;
34567;SDS011;20806;50.746;7.116;2022-11-20T06:48:02;2.60;;;2.40;;
34567;SDS011;20806;50.746;7.116;2022-11-20T06:50:28;2.70;;;2.50;;
34567;SDS011;20806;50.746;7.116;2022-11-20T06:52:54;2.72;;;2.53;;
34567;SDS011;20806;50.746;7.116;2022-11-20T06:55:20;2.60;;;2.40;;
34567;SDS011;20806;50.746;7.116;2022-11-20T06:57:46;3.00;;;2.55;;
34567;SDS011;20806;50.746;7.116;2022-11-20T07:00:12;2.90;;;2.70;;
34567;SDS011;20806;50.746;7.116;2022-11-20T07:02:38;2.88;;;2.67;;
34567;SDS011;20806;50.746;7.116;2022-11-20T07:05:04;2.97;;;2.78;;
34567;SDS011;20806;50.746;7.116;2022-11-20T07:07:30;3.00;;;2.80;;
34567;SDS011;20806;50.746;7.116;2022-11-20T07:09:56;2.90;;;2.60;;
34567;SDS011;20806;50.746;7.116;2022-11-20T07:12:22;2.60;;;2.40;;
34567;SDS011;20806;50.746;7.116;2022-11-20T07:14:48;2.92;;;2.72;;
34567;SDS011;20806;50.746;7.116;2022-11-20T07:17:14;2.67;;;2.47;;
34567;SDS011;20806;50.746;7.116;2022-11-20T07:19:40;2.80;;;2.60;;
34567;SDS011;20806;50.746;7.116;2022-11-20T07:22:07;2.78;;;2.58;;
34567;SDS011;20806;50.746;7.116;2022-11-20T07:24:33;2.40;;;2.30;;
34567;SDS011;20806;50.746;7.116;2022-11-20T07:26:59;2.70;;;2.50;;
34567;SDS011;20806;50.746;7.116;2022-11-20T07:29:25;2.80;;;2.60;;
34567;SDS011;20806;50.746;7.116;2022-11-20T07:31:51;2.58;;;2.38;;
34567;SDS011;20806;50.746;7.116;2022-11-20T07:34:17;2.40;;;2.20;;
34567;SDS011;20806;50.746;7.116;2022-11-20T07:36:44;2.28;;;2.15;;
34567;SDS011;20806;50.746;7.116;2022-11-20T07:39:10;2.47;;;2.28;;
34567;SDS011;20806;50.746;7.116;2022-11-20T07:41:36;2.60;;;2.40;;
34567;SDS011;20806;50.746;7.116;2022-11-20T07:44:02;2.53;;;2.33;;
34567;SDS011;20806;50.746;7.116;2022-11-20T07:46:28;2.55;;;2.35;;
34567;SDS011;20806;50.746;7.116;2022-11-20T07:48:54;2.47;;;2.28;;
34567;SDS011;20806;50.746;7.116;2022-11-20T07:51:20;2.72;;;2.53;;
34567;SDS011;20806;50.746;7.116;2022-11-20T07:53:47;2.80;;;2.60;;
34567;SDS011;20806;50.746;7.116;2022-11-20T07:56:12;2.70;;;2.50;;
34567;SDS011;20806;50.746;7.116;2022-11-20T07:58:39;2.60;;;2.40;;
34567;SDS011;20806;50.746;7.116;2022-11-20T08:01:05;2.42;;;2.28;;
34567;SDS011;20806;50.746;7.116;2022-11-20T08:03:32;2.60;;;2.40;;
34567;SDS011;20806;50.746;7.116;2022-11-20T08:05:58;2.53;;;2.35;;
34567;SDS011;20806;50.746;7.116;2022-11-20T08:08:25;2.70;;;2.50;;
34567;SDS011;20806;50.746;7.116;2022-11-20T08:10:51;2.70;;;2.50;;
34567;SDS011;20806;50.746;7.116;2022-11-20T08:13:18;2.53;;;2.33;;
34567;SDS011;20806;50.746;7.116;2022-11-20T08:16:02;2.70;;;2.50;;
34567;SDS011;20806;50.746;7.116;2022-11-20T08:18:28;2.78;;;2.58;;
34567;SDS011;20806;50.746;7.116;2022-11-20T08:20:54;2.67;;;2.47;;
34567;SDS011;20806;50.746;7.116;2022-11-20T08:23:22;2.80;;;2.60;;
34567;SDS011;20806;50.746;7.116;2022-11-20T08:25:49;2.90;;;2.70;;
34567;SDS011;20806;50.746;7.116;2022-11-20T08:28:15;2.88;;;2.67;;
34567;SDS011;20806;50.746;7.116;2022-11-20T08:30:41;3.03;;;2.72;;
34567;SDS011;20806;50.746;7.116;2022-11-20T08:33:08;2.90;;;2.70;;
34567;SDS011;20806;50.746;7.116;2022-11-20T08:35:35;3.13;;;2.83;;
34567;SDS011;20806;50.746;7.116;2022-11-20T08:38:04;2.80;;;2.60;;
34567;SDS011;20806;50.746;7.116;2022-11-20T08:40:30;3.07;;;2.60;;
34567;SDS011;20806;50.746;7.116;2022-11-20T08:42:56;2.80;;;2.60;;
34567;SDS011;20806;50.746;7.116;2022-11-20T08:45:22;3.10;;;2.80;;
34567;SDS011;20806;50.746;7.116;2022-11-20T08:47:49;3.00;;;2.80;;
34567;SDS011;20806;50.746;7.116;2022-11-20T08:50:15;3.33;;;2.90;;
34567;SDS011;20806;50.746;7.116;2022-11-20T08:52:42;3.45;;;3.15;;
34567;SDS011;20806;50.746;7.116;2022-11-20T08:55:08;3.30;;;3.00;;
34567;SDS011;20806;50.746;7.116;2022-11-20T08:57:35;3.40;;;3.10;;
34567;SDS011;20806;50.746;7.116;2022-11-20T09:00:02;3.47;;;3.17;;
34567;SDS011;20806;50.746;7.116;2022-11-20T09:02:28;3.17;;;2.88;;
34567;SDS011;20806;50.746;7.116;2022-11-20T09:04:54;3.58;;;3.28;;
34567;SDS011;20806;50.746;7.116;2022-11-20T09:07:20;3.83;;;3.47;;
34567;SDS011;20806;50.746;7.116;2022-11-20T09:09:46;3.83;;;3.42;;
34567;SDS011;20806;50.746;7.116;2022-11-20T09:12:12;4.20;;;3.80;;
34567;SDS011;20806;50.746;7.116;2022-11-20T09:14:39;3.70;;;3.40;;
34567;SDS011;20806;50.746;7.116;2022-11-20T09:17:05;4.13;;;3.73;;
34567;SDS011;20806;50.746;7.116;2022-11-20T09:19:32;3.47;;;3.17;;
34567;SDS011;20806;50.746;7.116;2022-11-20T09:21:58;4.07;;;3.50;;
34567;SDS011;20806;50.746;7.116;2022-11-20T09:24:25;3.70;;;3.33;;
34567;SDS011;20806;50.746;7.116;2022-11-20T09:26:51;4.72;;;4.22;;
34567;SDS011;20806;50.746;7.116;2022-11-20T09:29:17;4.88;;;4.35;;
34567;SDS011;20806;50.746;7.116;2022-11-20T09:31:43;5.13;;;4.53;;
34567;SDS011;20806;50.746;7.116;2022-11-20T09:34:09;4.80;;;4.38;;
34567;SDS011;20806;50.746;7.116;2022-11-20T09:36:35;4.68;;;4.10;;
34567;SDS011;20806;50.746;7.116;2022-11-20T09:39:01;4.07;;;3.67;;
34567;SDS011;20806;50.746;7.116;2022-11-20T09:46:47;4.30;;;3.78;;
34567;SDS011;20806;50.746;7.116;2022-11-20T09:54:25;5.10;;;4.38;;
34567;SDS011;20806;50.746;7.116;2022-11-20T09:56:59;4.18;;;3.78;;
34567;SDS011;20806;50.746;7.116;2022-11-20T09:59:42;4.30;;;3.90;;
34567;SDS011;20806;50.746;7.116;2022-11-20T10:05:01;4.30;;;3.90;;
34567;SDS011;20806;50.746;7.116;2022-11-20T10:07:36;3.90;;;3.50;;
34567;SDS011;20806;50.746;7.116;2022-11-20T10:10:04;4.10;;;3.67;;
34567;SDS011;20806;50.746;7.116;2022-11-20T10:13:05;4.82;;;3.80;;
34567;SDS011;20806;50.746;7.116;2022-11-20T10:15:29;3.67;;;3.37;;
34567;SDS011;20806;50.746;7.116;2022-11-20T10:20:32;3.58;;;3.28;;
34567;SDS011;20806;50.746;7.116;2022-11-20T10:25:33;3.20;;;2.90;;
34567;SDS011;20806;50.746;7.116;2022-11-20T10:28:06;3.72;;;3.40;;
34567;SDS011;20806;50.746;7.116;2022-11-20T10:30:37;4.97;;;4.43;;
34567;SDS011;20806;50.746;7.116;2022-11-20T10:33:15;4.43;;;4.00;;
34567;SDS011;20806;50.746;7.116;2022-11-20T10:35:49;4.10;;;3.70;;
34567;SDS011;20806;50.746;7.116;2022-11-20T10:38:31;4.20;;;3.80;;
34567;SDS011;20806;50.746;7.116;2022-11-20T10:41:01;4.93;;;4.43;;
34567;SDS011;20806;50.746;7.116;2022-11-20T10:43:49;4.55;;;4.10;;
34567;SDS011;20806;50.746;7.116;2022-11-20T10:46:18;4.00;;;3.60;;
34567;SDS011;20806;50.746;7.116;2022-11-20T10:48:47;3.65;;;3.33;;
34567;SDS011;20806;50.746;7.116;2022-11-20T10:54:08;3.60;;;3.30;;
34567;SDS011;20806;50.746;7.116;2022-11-20T11:01:39;3.00;;;2.80;;
34567;SDS011;20806;50.746;7.116;2022-11-20T11:04:07;3.22;;;2.92;;
34567;SDS011;20806;50.746;7.116;2022-11-20T11:06:43;3.42;;;2.78;;
34567;SDS011;20806;50.746;7.116;2022-11-20T11:09:14;3.13;;;2.83;;
34567;SDS011;20806;50.746;7.116;2022-11-20T11:11:42;3.20;;;2.90;;
34567;SDS011;20806;50.746;7.116;2022-11-20T11:14:09;3.50;;;3.20;;
34567;SDS011;20806;50.746;7.116;2022-11-20T11:16:35;3.50;;;3.20;;
34567;SDS011;20806;50.746;7.116;2022-11-20T11:19:34;2.90;;;2.70;;
34567;SDS011;20806;50.746;7.116;2022-11-20T11:21:54;3.45;;;3.15;;
34567;SDS011;20806;50.746;7.116;2022-11-20T11:24:26;3.60;;;3.30;;
34567;SDS011;20806;50.746;7.116;2022-11-20T11:26:56;4.20;;;3.40;;
34567;SDS011;20806;50.746;7.116;2022-11-20T11:29:23;4.03;;;3.57;;
34567;SDS011;20806;50.746;7.116;2022-11-20T11:31:51;3.42;;;3.13;;
34567;SDS011;20806;50.746;7.116;2022-11-20T11:34:28;3.88;;;3.47;;
34567;SDS011;20806;50.746;7.116;2022-11-20T11:36:55;3.42;;;3.13;;
34567;SDS011;20806;50.746;7.116;2022-11-20T11:39:22;3.40;;;3.10;;
34567;SDS011;20806;50.746;7.116;2022-11-20T11:41:48;3.40;;;3.10;;
34567;SDS011;20806;50.746;7.116;2022-11-20T11:46:59;3.30;;;2.97;;
34567;SDS011;20806;50.746;7.116;2022-11-20T11:49:25;3.70;;;3.35;;
34567;SDS011;20806;50.746;7.116;2022-11-20T11:57:00;4.43;;;3.85;;
34567;SDS011;20806;50.746;7.116;2022-11-20T11:59:28;4.03;;;3.63;;
34567;SDS011;20806;50.746;7.116;2022-11-20T12:01:58;3.88;;;3.47;;
34567;SDS011;20806;50.746;7.116;2022-11-20T12:07:01;4.00;;;3.60;;
34567;SDS011;20806;50.746;7.116;2022-11-20T12:09:34;4.47;;;4.00;;
34567;SDS011;20806;50.746;7.116;2022-11-20T12:12:17;4.60;;;4.07;;
34567;SDS011;20806;50.746;7.116;2022-11-20T12:14:45;4.28;;;3.55;;
34567;SDS011;20806;50.746;7.116;2022-11-20T12:17:13;5.03;;;3.93;;
34567;SDS011;20806;50.746;7.116;2022-11-20T12:19:39;5.07;;;4.10;;
34567;SDS011;20806;50.746;7.116;2022-11-20T12:30:02;4.22;;;3.45;;
34567;SDS011;20806;50.746;7.116;2022-11-20T12:35:21;3.42;;;3.00;;
34567;SDS011;20806;50.746;7.116;2022-11-20T12:37:55;3.10;;;2.80;;
34567;SDS011;20806;50.746;7.116;2022-11-20T12:48:17;3.88;;;3.47;;
34567;SDS011;20806;50.746;7.116;2022-11-20T12:50:51;3.70;;;3.30;;
34567;SDS011;20806;50.746;7.116;2022-11-20T12:59:02;3.10;;;2.80;;
34567;SDS011;20806;50.746;7.116;2022-11-20T13:01:37;4.10;;;3.30;;
34567;SDS011;20806;50.746;7.116;2022-11-20T13:04:11;3.60;;;3.30;;
34567;SDS011;20806;50.746;7.116;2022-11-20T13:06:38;3.55;;;3.25;;
34567;SDS011;20806;50.746;7.116;2022-11-20T13:09:07;3.63;;;3.13;;
34567;SDS011;20806;50.746;7.116;2022-11-20T13:11:39;3.33;;;3.03;;
34567;SDS011;20806;50.746;7.116;2022-11-20T13:16:48;3.22;;;2.90;;
34567;SDS011;20806;50.746;7.116;2022-11-20T13:19:16;3.33;;;3.00;;
34567;SDS011;20806;50.746;7.116;2022-11-20T13:21:43;3.47;;;3.17;;
34567;SDS011;20806;50.746;7.116;2022-11-20T13:29:36;3.67;;;3.28;;
34567;SDS011;20806;50.746;7.116;2022-11-20T13:32:03;3.50;;;3.20;;
34567;SDS011;20806;50.746;7.116;2022-11-20T13:34:30;3.58;;;3.25;;
34567;SDS011;20806;50.746;7.116;2022-11-20T13:36:56;3.33;;;3.00;;
34567;SDS011;20806;50.746;7.116;2022-11-20T13:39:23;3.22;;;2.92;;
34567;SDS011;20806;50.746;7.116;2022-11-20T13:42:00;3.20;;;2.90;;
34567;SDS011;20806;50.746;7.116;2022-11-20T13:46:59;3.53;;;3.22;;
34567;SDS011;20806;50.746;7.116;2022-11-20T13:49:33;3.90;;;3.50;;
34567;SDS011;20806;50.746;7.116;2022-11-20T13:54:49;3.47;;;3.17;;
34567;SDS011;20806;50.746;7.116;2022-11-20T13:59:57;3.28;;;2.97;;
34567;SDS011;20806;50.746;7.116;2022-11-20T14:02:25;3.30;;;3.00;;
34567;SDS011;20806;50.746;7.116;2022-11-20T14:04:52;3.28;;;2.97;;
34567;SDS011;20806;50.746;7.116;2022-11-20T14:07:19;3.55;;;3.25;;
34567;SDS011;20806;50.746;7.116;2022-11-20T14:09:55;4.03;;;3.20;;
34567;SDS011;20806;50.746;7.116;2022-11-20T14:12:23;3.72;;;3.42;;
34567;SDS011;20806;50.746;7.116;2022-11-20T14:14:50;3.50;;;3.20;;
34567;SDS011;20806;50.746;7.116;2022-11-20T14:17:20;3.47;;;3.17;;
34567;SDS011;20806;50.746;7.116;2022-11-20T14:19:46;3.40;;;3.10;;
34567;SDS011;20806;50.746;7.116;2022-11-20T14:22:23;3.55;;;3.25;;
34567;SDS011;20806;50.746;7.116;2022-11-20T14:25:00;3.53;;;3.22;;
34567;SDS011;20806;50.746;7.116;2022-11-20T14:27:26;3.28;;;2.97;;
34567;SDS011;20806;50.746;7.116;2022-11-20T14:29:52;4.28;;;3.10;;
34567;SDS011;20806;50.746;7.116;2022-11-20T14:32:19;3.10;;;2.90;;
34567;SDS011;20806;50.746;7.116;2022-11-20T14:34:47;3.25;;;2.90;;
34567;SDS011;20806;50.746;7.116;2022-11-20T14:37:19;3.50;;;3.20;;
34567;SDS011;20806;50.746;7.116;2022-11-20T14:39:50;3.70;;;3.25;;
34567;SDS011;20806;50.746;7.116;2022-11-20T14:42:26;3.88;;;3.58;;
34567;SDS011;20806;50.746;7.116;2022-11-20T14:44:54;4.05;;;3.65;;
34567;SDS011;20806;50.746;7.116;2022-11-20T14:47:21;3.80;;;3.45;;
34567;SDS011;20806;50.746;7.116;2022-11-20T14:49:49;3.78;;;3.47;;
34567;SDS011;20806;50.746;7.116;2022-11-20T14:52:17;4.25;;;3.72;;
34567;SDS011;20806;50.746;7.116;2022-11-20T14:54:47;4.57;;;4.18;;
34567;SDS011;20806;50.746;7.116;2022-11-20T15:02:50;4.00;;;3.60;;
34567;SDS011;20806;50.746;7.116;2022-11-20T15:05:17;3.40;;;3.10;;
34567;SDS011;20806;50.746;7.116;2022-11-20T15:07:45;3.42;;;3.13;;
34567;SDS011;20806;50.746;7.116;2022-11-20T15:12:45;2.90;;;2.70;;
34567;SDS011;20806;50.746;7.116;2022-11-20T15:15:12;3.00;;;2.80;;
34567;SDS011;20806;50.746;7.116;2022-11-20T15:17:40;2.97;;;2.67;;
34567;SDS011;20806;50.746;7.116;2022-11-20T15:20:11;2.85;;;2.60;;
34567;SDS011;20806;50.746;7.116;2022-11-20T15:22:39;3.53;;;3.22;;
34567;SDS011;20806;50.746;7.116;2022-11-20T15:25:11;3.33;;;3.03;;
34567;SDS011;20806;50.746;7.116;2022-11-20T15:27:37;3.47;;;3.10;;
34567;SDS011;20806;50.746;7.116;2022-11-20T15:30:11;3.53;;;3.20;;
34567;SDS011;20806;50.746;7.116;2022-11-20T15:32:38;3.35;;;3.03;;
34567;SDS011;20806;50.746;7.116;2022-11-20T15:35:04;3.20;;;2.85;;
34567;SDS011;20806;50.746;7.116;2022-11-20T15:37:30;3.47;;;2.70;;
34567;SDS011;20806;50.746;7.116;2022-11-20T15:39:56;2.85;;;2.58;;
34567;SDS011;20806;50.746;7.116;2022-11-20T15:42:22;2.38;;;2.17;;
34567;SDS011;20806;50.746;7.116;2022-11-20T15:44:48;2.38;;;2.17;;
34567;SDS011;20806;50.746;7.116;2022-11-20T15:47:14;1.80;;;1.70;;
34567;SDS011;20806;50.746;7.116;2022-11-20T15:49:42;1.80;;;1.67;;
34567;SDS011;20806;50.746;7.116;2022-11-20T15:52:08;1.42;;;1.30;;
34567;SDS011;20806;50.746;7.116;2022-11-20T15:54:34;1.10;;;1.10;;
34567;SDS011;20806;50.746;7.116;2022-11-20T15:57:00;1.10;;;0.98;;
34567;SDS011;20806;50.746;7.116;2022-11-20T15:59:27;1.10;;;0.88;;
34567;SDS011;20806;50.746;7.116;2022-11-20T16:01:53;0.87;;;0.87;;
34567;SDS011;20806;50.746;7.116;2022-11-20T16:04:19;0.75;;;0.75;;
34567;SDS011;20806;50.746;7.116;2022-11-20T16:06:45;0.77;;;0.65;;
34567;SDS011;20806;50.746;7.116;2022-11-20T16:09:11;0.60;;;0.60;;
34567;SDS011;20806;50.746;7.116;2022-11-20T16:11:37;0.60;;;0.60;;
34567;SDS011;20806;50.746;7.116;2022-11-20T16:14:03;0.90;;;0.90;;
34567;SDS011;20806;50.746;7.116;2022-11-20T16:16:49;0.90;;;0.90;;
34567;SDS011;20806;50.746;7.116;2022-11-20T16:19:15;1.20;;;1.10;;
34567;SDS011;20806;50.746;7.116;2022-11-20T16:21:42;1.23;;;1.13;;